Terminal Aerodrome Forecast
Issued by NWS Cleveland, OH

Home | Current Version | Previous Version | Graphics & Text | Print | Product List | Glossary On
Versions: 1 2 3 4 5 6 7 8 9 10 11 12 13 14 15 16 17 18 19 20 21 22 23 24
000
FTUS41 KCLE 260800 AAB
TAFMFD
TAF AMD
KMFD 260850Z 2609/2706 23004KT 4SM -RA BR OVC004
     FM261100 VRB03KT 5SM -RA BR OVC007
      TEMPO 2611/2612 2SM -RA BR OVC004
     FM261200 03005KT 2SM -RA BR OVC008
     FM262000 34006KT 3SM -RASN BR OVC012
     FM270100 27008KT P6SM OVC050=

USA.gov is the U.S. government's official web portal to all federal, state and local government web resources and services.